createdAt,value
2023-01-12T00:02:24.112Z,20.70
2023-01-12T00:04:50.796Z,20.70
2023-01-12T00:07:18.082Z,20.70
2023-01-12T00:09:44.858Z,20.70
2023-01-12T00:12:12.297Z,20.70
2023-01-12T00:14:39.523Z,20.70
2023-01-12T00:17:06.771Z,20.60
2023-01-12T00:19:34.019Z,20.70
2023-01-12T00:22:05.081Z,20.60
2023-01-12T00:24:37.104Z,20.60
2023-01-12T00:27:05.304Z,20.60
2023-01-12T00:29:31.938Z,20.60
2023-01-12T00:31:59.469Z,20.60
2023-01-12T00:34:29.258Z,20.60
2023-01-12T00:36:56.147Z,20.60
2023-01-12T00:39:22.815Z,20.60
2023-01-12T00:42:08.118Z,20.60
2023-01-12T00:44:53.649Z,20.60
2023-01-12T00:47:20.392Z,20.60
2023-01-12T00:49:47.486Z,20.60
2023-01-12T00:52:29.280Z,20.60
2023-01-12T00:54:57.089Z,20.60
2023-01-12T00:57:23.736Z,20.60
2023-01-12T00:59:51.516Z,20.60
2023-01-12T01:02:18.214Z,20.60
2023-01-12T01:04:44.912Z,20.60
2023-01-12T01:07:15.925Z,20.60
2023-01-12T01:09:43.178Z,20.60
2023-01-12T01:12:10.287Z,20.60
2023-01-12T01:14:36.968Z,20.60
2023-01-12T01:17:03.572Z,20.60
2023-01-12T01:19:30.159Z,20.60
2023-01-12T01:21:56.867Z,20.50
2023-01-12T01:24:23.782Z,20.60
2023-01-12T01:26:51.446Z,20.50
2023-01-12T01:29:18.411Z,20.50
2023-01-12T01:31:47.574Z,20.50
2023-01-12T01:34:14.673Z,20.50
2023-01-12T01:36:41.298Z,20.50
2023-01-12T01:39:08.023Z,20.50
2023-01-12T01:41:34.712Z,20.50
2023-01-12T01:44:25.913Z,20.50
2023-01-12T01:47:02.555Z,20.50
2023-01-12T01:49:44.918Z,20.50
2023-01-12T01:52:19.962Z,20.50
2023-01-12T01:54:54.631Z,20.50
2023-01-12T01:57:24.510Z,20.50
2023-01-12T01:59:55.190Z,20.50
2023-01-12T02:02:25.258Z,20.50
2023-01-12T02:04:53.544Z,20.50
2023-01-12T02:07:20.215Z,20.50
2023-01-12T02:09:46.915Z,20.50
2023-01-12T02:12:32.877Z,20.50
2023-01-12T02:15:18.204Z,20.50
2023-01-12T02:18:11.299Z,20.50
2023-01-12T02:20:46.384Z,20.40
2023-01-12T02:23:22.230Z,20.40
2023-01-12T02:25:58.460Z,20.50
2023-01-12T02:28:44.126Z,20.40
2023-01-12T02:31:31.826Z,20.50
2023-01-12T02:34:25.833Z,20.40
2023-01-12T02:37:11.255Z,20.50
2023-01-12T02:39:44.900Z,20.40
2023-01-12T02:42:39.939Z,20.40
2023-01-12T02:45:34.536Z,20.40
2023-01-12T02:48:17.501Z,20.40
2023-01-12T02:50:57.188Z,20.40
2023-01-12T02:53:44.856Z,20.40
2023-01-12T02:56:15.738Z,20.40
2023-01-12T02:58:47.759Z,20.40
2023-01-12T03:01:15.281Z,20.40
2023-01-12T03:03:42.498Z,20.40
2023-01-12T03:06:09.904Z,20.40
2023-01-12T03:08:39.186Z,20.40
2023-01-12T03:11:16.087Z,20.40
2023-01-12T03:13:51.096Z,20.40
2023-01-12T03:16:38.106Z,20.40
2023-01-12T03:19:09.794Z,20.40
2023-01-12T03:21:42.854Z,20.40
2023-01-12T03:24:14.022Z,20.40
2023-01-12T03:26:52.559Z,20.40
2023-01-12T03:29:31.918Z,20.40
2023-01-12T03:31:59.584Z,20.40
2023-01-12T03:34:26.706Z,20.40
2023-01-12T03:37:16.073Z,20.40
2023-01-12T03:39:55.877Z,20.40
2023-01-12T03:42:31.603Z,20.40
2023-01-12T03:45:25.244Z,20.40
2023-01-12T03:47:57.481Z,20.40
2023-01-12T03:50:34.412Z,20.40
2023-01-12T03:53:02.691Z,20.40
2023-01-12T03:55:30.735Z,20.40
2023-01-12T03:57:58.154Z,20.40
2023-01-12T04:00:26.469Z,20.40
2023-01-12T04:03:03.686Z,20.40
2023-01-12T04:05:30.377Z,20.40
2023-01-12T04:07:56.982Z,20.40
2023-01-12T04:10:23.540Z,20.40
2023-01-12T04:12:50.099Z,20.40
2023-01-12T04:15:16.739Z,20.40
2023-01-12T04:17:44.423Z,20.40
2023-01-12T04:20:11.545Z,20.40
2023-01-12T04:22:43.869Z,20.40
2023-01-12T04:25:14.978Z,20.40
2023-01-12T04:27:50.063Z,20.40
2023-01-12T04:30:19.025Z,20.40
2023-01-12T04:32:46.404Z,20.40
2023-01-12T04:35:13.171Z,20.40
2023-01-12T04:37:40.325Z,20.40
2023-01-12T04:40:08.223Z,20.40
2023-01-12T04:42:53.673Z,20.40
2023-01-12T04:45:20.317Z,20.40
2023-01-12T04:47:46.919Z,20.40
2023-01-12T04:50:13.639Z,20.40
2023-01-12T04:52:40.539Z,20.40
2023-01-12T04:55:07.415Z,20.40
2023-01-12T04:57:34.047Z,20.40
2023-01-12T05:00:00.615Z,20.40
2023-01-12T05:02:27.856Z,20.40
2023-01-12T05:04:54.462Z,20.40
2023-01-12T05:07:21.523Z,20.40
2023-01-12T05:10:06.571Z,20.40
2023-01-12T05:12:33.246Z,20.40
2023-01-12T05:14:59.875Z,20.40
2023-01-12T05:17:26.820Z,20.30
2023-01-12T05:19:53.492Z,20.40
2023-01-12T05:22:20.131Z,20.40
2023-01-12T05:24:46.687Z,20.40
2023-01-12T05:27:13.295Z,20.40
2023-01-12T05:29:39.906Z,20.40
2023-01-12T05:32:06.546Z,20.40
2023-01-12T05:34:33.248Z,20.40
2023-01-12T05:36:59.840Z,20.40
2023-01-12T05:39:26.473Z,20.40
2023-01-12T05:42:11.804Z,20.40
2023-01-12T05:44:38.472Z,20.40
2023-01-12T05:47:05.109Z,20.40
2023-01-12T05:49:31.783Z,20.40
2023-01-12T05:51:58.396Z,20.40
2023-01-12T05:54:25.064Z,20.40
2023-01-12T05:56:51.659Z,20.40
2023-01-12T05:59:18.471Z,20.40
2023-01-12T06:01:45.099Z,20.40
2023-01-12T06:04:11.724Z,20.40
2023-01-12T06:06:38.437Z,20.40
2023-01-12T06:09:05.131Z,20.30
2023-01-12T06:11:50.269Z,18.80
2023-01-12T06:14:16.994Z,18.00
2023-01-12T06:16:43.702Z,17.60
2023-01-12T06:19:12.770Z,17.10
2023-01-12T06:21:40.477Z,16.90
2023-01-12T06:24:07.432Z,16.70
2023-01-12T06:26:34.043Z,16.60
2023-01-12T06:29:00.779Z,16.40
2023-01-12T06:31:27.560Z,16.30
2023-01-12T06:33:54.225Z,16.20
2023-01-12T06:36:20.842Z,16.30
2023-01-12T06:38:47.403Z,17.30
2023-01-12T06:41:32.558Z,18.10
2023-01-12T06:43:59.682Z,18.60
2023-01-12T06:46:28.051Z,19.00
2023-01-12T06:48:58.339Z,19.20
2023-01-12T06:51:25.761Z,19.20
2023-01-12T06:53:52.877Z,19.30
2023-01-12T06:56:19.457Z,19.40
2023-01-12T06:58:46.142Z,19.40
2023-01-12T07:01:13.730Z,19.50
2023-01-12T07:03:40.681Z,19.50
2023-01-12T07:06:07.845Z,19.50
2023-01-12T07:08:34.639Z,19.60
2023-01-12T07:11:07.946Z,19.60
2023-01-12T07:13:34.617Z,19.60
2023-01-12T07:16:02.030Z,19.60
2023-01-12T07:18:29.575Z,19.60
2023-01-12T07:20:56.197Z,19.60
2023-01-12T07:23:23.296Z,19.70
2023-01-12T07:25:50.052Z,19.70
2023-01-12T07:28:16.816Z,19.70
2023-01-12T07:30:43.700Z,19.70
2023-01-12T07:33:12.628Z,19.70
2023-01-12T07:35:40.907Z,19.80
2023-01-12T07:38:07.968Z,19.80
2023-01-12T07:40:35.566Z,19.80
2023-01-12T07:43:04.428Z,19.80
2023-01-12T07:45:32.422Z,19.80
2023-01-12T07:47:59.199Z,19.80
2023-01-12T07:50:27.220Z,19.90
2023-01-12T07:52:54.359Z,19.90
2023-01-12T07:55:21.294Z,19.80
2023-01-12T07:58:14.165Z,19.90
2023-01-12T08:00:40.877Z,19.90
2023-01-12T08:03:10.394Z,19.90
2023-01-12T08:05:38.029Z,19.90
2023-01-12T08:08:05.926Z,19.90
2023-01-12T08:10:32.662Z,19.90
2023-01-12T08:12:59.335Z,19.90
2023-01-12T08:15:28.398Z,19.90
2023-01-12T08:18:20.835Z,19.90
2023-01-12T08:20:47.475Z,19.90
2023-01-12T08:23:25.193Z,19.90
2023-01-12T08:25:59.278Z,19.90
2023-01-12T08:28:35.549Z,19.90
2023-01-12T08:31:02.440Z,19.90
2023-01-12T08:33:29.242Z,19.90
2023-01-12T08:35:56.123Z,19.90
2023-01-12T08:38:22.744Z,19.90
2023-01-12T08:41:08.148Z,20.00
2023-01-12T08:43:53.596Z,19.90
2023-01-12T08:46:20.237Z,19.90
2023-01-12T08:48:46.832Z,20.00
2023-01-12T08:51:13.489Z,20.00
2023-01-12T08:53:40.090Z,20.00
2023-01-12T08:56:07.353Z,20.00
2023-01-12T08:58:34.023Z,20.00
2023-01-12T09:01:12.189Z,20.00
2023-01-12T09:03:39.626Z,20.00
2023-01-12T09:06:28.220Z,20.00
2023-01-12T09:08:56.515Z,20.00
2023-01-12T09:11:24.028Z,20.00
2023-01-12T09:13:50.824Z,20.00
2023-01-12T09:16:19.251Z,20.00
2023-01-12T09:18:46.542Z,20.00
2023-01-12T09:21:16.600Z,20.00
2023-01-12T09:23:44.024Z,20.00
2023-01-12T09:26:16.122Z,20.00
2023-01-12T09:28:45.051Z,20.00
2023-01-12T09:31:20.219Z,20.00
2023-01-12T09:33:47.400Z,20.00
2023-01-12T09:36:19.154Z,20.00
2023-01-12T09:38:47.290Z,20.00
2023-01-12T09:41:45.414Z,20.00
2023-01-12T09:44:57.138Z,20.00
2023-01-12T09:47:48.906Z,20.00
2023-01-12T09:50:36.162Z,20.00
2023-01-12T09:53:15.789Z,20.00
2023-01-12T09:56:22.943Z,20.00
2023-01-12T09:59:07.797Z,20.00
2023-01-12T10:01:36.871Z,20.00
2023-01-12T10:04:05.086Z,20.00
2023-01-12T10:06:32.917Z,20.00
2023-01-12T10:09:12.655Z,20.00
2023-01-12T10:11:52.663Z,20.00
2023-01-12T10:14:34.390Z,20.00
2023-01-12T10:17:16.719Z,20.00
2023-01-12T10:20:04.754Z,20.00
2023-01-12T10:22:50.781Z,20.00
2023-01-12T10:25:24.222Z,20.00
2023-01-12T10:27:53.536Z,20.10
2023-01-12T10:30:29.206Z,20.00
2023-01-12T10:32:56.027Z,20.10
2023-01-12T10:35:25.424Z,20.10
2023-01-12T10:37:55.080Z,20.00
2023-01-12T10:40:27.023Z,20.00
2023-01-12T10:43:21.670Z,20.00
2023-01-12T10:46:12.884Z,20.10
2023-01-12T10:48:43.256Z,20.10
2023-01-12T10:51:20.728Z,20.10
2023-01-12T10:54:02.349Z,20.10
2023-01-12T10:56:36.376Z,20.10
2023-01-12T10:59:14.827Z,20.10
2023-01-12T11:02:03.381Z,20.10
2023-01-12T11:04:30.873Z,20.10
2023-01-12T11:07:10.762Z,20.00
2023-01-12T11:09:37.929Z,20.10
2023-01-12T11:12:18.683Z,20.10
2023-01-12T11:15:02.886Z,20.00
2023-01-12T11:17:39.396Z,20.00
2023-01-12T11:20:19.534Z,20.10
2023-01-12T11:22:48.200Z,20.10
2023-01-12T11:25:26.134Z,20.10
2023-01-12T11:28:14.338Z,20.10
2023-01-12T11:31:01.560Z,20.10
2023-01-12T11:33:38.118Z,20.10
2023-01-12T11:36:17.506Z,20.10
2023-01-12T11:39:06.787Z,20.00
2023-01-12T11:42:09.577Z,20.10
2023-01-12T11:45:04.448Z,20.10
2023-01-12T11:47:38.904Z,20.00
2023-01-12T11:50:14.692Z,20.10
2023-01-12T11:52:42.092Z,20.10
2023-01-12T11:55:17.044Z,20.10
2023-01-12T11:57:52.888Z,20.10
2023-01-12T12:00:42.401Z,20.00
2023-01-12T12:03:38.659Z,20.10
2023-01-12T12:06:35.816Z,20.10
2023-01-12T12:09:23.973Z,20.10
2023-01-12T12:12:05.539Z,20.10
2023-01-12T12:14:54.952Z,20.10
2023-01-12T12:17:36.911Z,20.10
2023-01-12T12:20:18.748Z,20.10
2023-01-12T12:23:03.634Z,20.10
2023-01-12T12:25:56.858Z,20.10
2023-01-12T12:28:48.332Z,20.10
2023-01-12T12:31:33.993Z,20.10
2023-01-12T12:34:26.718Z,20.10
2023-01-12T12:37:11.714Z,20.10
2023-01-12T12:40:12.692Z,20.10
2023-01-12T12:43:18.495Z,20.10
2023-01-12T12:46:00.335Z,20.10
2023-01-12T12:48:56.284Z,20.10
2023-01-12T12:51:25.738Z,20.10
2023-01-12T12:53:54.413Z,20.10
2023-01-12T12:56:25.935Z,20.10
2023-01-12T12:58:57.895Z,20.10
2023-01-12T13:01:24.824Z,20.10
2023-01-12T13:03:57.345Z,20.10
2023-01-12T13:06:31.292Z,20.10
2023-01-12T13:08:59.435Z,20.10
2023-01-12T13:11:47.745Z,20.10
2023-01-12T13:14:38.661Z,20.10
2023-01-12T13:17:31.704Z,20.10
2023-01-12T13:20:06.116Z,20.10
2023-01-12T13:22:45.429Z,20.10
2023-01-12T13:25:22.104Z,20.10
2023-01-12T13:28:01.060Z,20.10
2023-01-12T13:30:30.703Z,20.10
2023-01-12T13:33:10.673Z,20.10
2023-01-12T13:35:38.830Z,20.10
2023-01-12T13:38:20.255Z,20.10
2023-01-12T13:40:56.215Z,20.10
2023-01-12T13:43:32.019Z,20.10
2023-01-12T13:46:17.921Z,20.10
2023-01-12T13:48:52.001Z,20.10
2023-01-12T13:51:38.914Z,20.10
2023-01-12T13:54:11.165Z,20.10
2023-01-12T13:56:38.048Z,20.10
2023-01-12T13:59:07.704Z,20.10
2023-01-12T14:01:41.177Z,20.10
2023-01-12T14:04:11.036Z,20.10
2023-01-12T14:06:43.569Z,20.10
2023-01-12T14:09:19.929Z,20.10
2023-01-12T14:12:24.239Z,20.10
2023-01-12T14:15:35.485Z,20.10
2023-01-12T14:18:23.988Z,20.10
2023-01-12T14:20:53.485Z,20.10
2023-01-12T14:23:35.692Z,20.10
2023-01-12T14:26:16.477Z,20.10
2023-01-12T14:28:47.710Z,20.10
2023-01-12T14:31:32.404Z,20.10
2023-01-12T14:34:02.730Z,20.10
2023-01-12T14:36:35.545Z,20.10
2023-01-12T14:39:09.047Z,20.10
2023-01-12T14:41:54.113Z,20.10
2023-01-12T14:44:42.041Z,20.10
2023-01-12T14:47:09.622Z,20.10
2023-01-12T14:49:38.960Z,20.10
2023-01-12T14:52:17.359Z,20.10
2023-01-12T14:54:44.233Z,20.10
2023-01-12T14:57:34.902Z,20.10
2023-01-12T15:00:03.228Z,20.10
2023-01-12T15:02:40.495Z,20.10
2023-01-12T15:05:21.652Z,20.10
2023-01-12T15:08:07.935Z,20.10
2023-01-12T15:10:36.999Z,20.10
2023-01-12T15:13:26.834Z,20.10
2023-01-12T15:16:14.048Z,20.10
2023-01-12T15:18:59.638Z,20.10
2023-01-12T15:21:46.749Z,20.10
2023-01-12T15:27:25.152Z,20.10
2023-01-12T15:29:51.848Z,20.10
2023-01-12T15:32:46.826Z,20.10
2023-01-12T15:35:23.904Z,20.10
2023-01-12T15:37:52.854Z,20.10
2023-01-12T15:40:19.801Z,20.10
2023-01-12T15:42:47.575Z,20.10
2023-01-12T15:45:32.298Z,20.10
2023-01-12T15:47:59.016Z,19.90
2023-01-12T15:50:25.804Z,19.20
2023-01-12T15:52:52.968Z,18.90
2023-01-12T15:55:22.371Z,19.20
2023-01-12T15:57:50.845Z,19.50
2023-01-12T16:00:20.931Z,19.70
2023-01-12T16:02:48.937Z,19.80
2023-01-12T16:05:22.514Z,19.90
2023-01-12T16:07:49.847Z,19.90
2023-01-12T16:10:17.653Z,20.00
2023-01-12T16:12:45.720Z,20.00
2023-01-12T16:15:21.364Z,20.00
2023-01-12T16:17:48.889Z,20.00
2023-01-12T16:20:17.842Z,20.10
2023-01-12T16:22:46.537Z,20.10
2023-01-12T16:25:13.931Z,20.10
2023-01-12T16:27:40.629Z,20.10
2023-01-12T16:30:11.980Z,20.20
2023-01-12T16:32:38.650Z,20.10
2023-01-12T16:35:05.480Z,20.20
2023-01-12T16:37:33.264Z,20.20
2023-01-12T16:40:00.776Z,20.20
2023-01-12T16:42:27.691Z,20.20
2023-01-12T16:44:54.383Z,20.20
2023-01-12T16:47:21.932Z,20.20
2023-01-12T16:49:51.920Z,20.20
2023-01-12T16:52:20.660Z,20.30
2023-01-12T16:54:47.455Z,20.30
2023-01-12T16:57:16.163Z,20.30
2023-01-12T16:59:43.272Z,20.30
2023-01-12T17:02:15.403Z,20.30
2023-01-12T17:04:42.448Z,20.30
2023-01-12T17:07:10.413Z,20.40
2023-01-12T17:09:39.329Z,20.40
2023-01-12T17:12:06.822Z,20.40
2023-01-12T17:14:34.650Z,20.40
2023-01-12T17:17:05.509Z,20.40
2023-01-12T17:19:34.202Z,20.40
2023-01-12T17:22:02.056Z,20.40
2023-01-12T17:24:30.856Z,20.50
2023-01-12T17:26:58.269Z,20.50
2023-01-12T17:29:26.710Z,20.50
2023-01-12T17:31:55.665Z,20.40
2023-01-12T17:34:23.512Z,20.50
2023-01-12T17:36:50.183Z,20.40
2023-01-12T17:39:16.906Z,20.50
2023-01-12T17:42:02.128Z,20.60
2023-01-12T17:44:28.871Z,20.60
2023-01-12T17:46:55.505Z,20.50
2023-01-12T17:49:22.244Z,20.60
2023-01-12T17:51:48.980Z,20.50
2023-01-12T17:54:15.887Z,20.50
2023-01-12T17:56:42.944Z,20.60
2023-01-12T17:59:16.461Z,20.60
2023-01-12T18:01:43.411Z,20.60
2023-01-12T18:04:10.235Z,20.60
2023-01-12T18:06:36.895Z,20.60
2023-01-12T18:09:04.304Z,20.60
2023-01-12T18:11:31.882Z,20.60
2023-01-12T18:13:59.485Z,20.60
2023-01-12T18:16:26.591Z,20.60
2023-01-12T18:18:53.495Z,20.60
2023-01-12T18:21:23.319Z,20.60
2023-01-12T18:23:51.916Z,20.60
2023-01-12T18:26:22.431Z,20.60
2023-01-12T18:28:49.199Z,20.60
2023-01-12T18:31:21.663Z,20.60
2023-01-12T18:34:08.656Z,20.60
2023-01-12T18:36:37.809Z,20.60
2023-01-12T18:39:06.152Z,20.60
2023-01-12T18:41:51.396Z,20.70
2023-01-12T18:44:18.094Z,20.70
2023-01-12T18:47:03.361Z,20.70
2023-01-12T18:49:32.798Z,20.70
2023-01-12T18:52:18.914Z,20.70
2023-01-12T18:54:47.647Z,20.70
2023-01-12T18:57:20.082Z,20.70
2023-01-12T18:59:47.439Z,20.80
2023-01-12T19:02:15.470Z,20.80
2023-01-12T19:04:51.551Z,20.80
2023-01-12T19:07:28.932Z,20.80
2023-01-12T19:09:56.369Z,20.80
2023-01-12T19:12:23.876Z,20.80
2023-01-12T19:15:09.076Z,20.90
2023-01-12T19:17:39.020Z,20.90
2023-01-12T19:20:09.229Z,20.90
2023-01-12T19:22:54.397Z,20.90
2023-01-12T19:25:41.901Z,20.90
2023-01-12T19:28:35.026Z,20.90
2023-01-12T19:31:12.330Z,20.90
2023-01-12T19:33:39.645Z,21.00
2023-01-12T19:36:08.481Z,21.00
2023-01-12T19:38:38.753Z,21.00
2023-01-12T19:41:33.425Z,21.00
2023-01-12T19:44:05.276Z,21.00
2023-01-12T19:46:33.122Z,21.00
2023-01-12T19:49:00.468Z,21.00
2023-01-12T19:51:27.148Z,21.00
2023-01-12T19:53:53.973Z,21.00
2023-01-12T19:56:20.785Z,21.00
2023-01-12T19:58:47.487Z,20.90
2023-01-12T20:01:21.580Z,20.80
2023-01-12T20:03:50.390Z,20.90
2023-01-12T20:06:17.898Z,20.90
2023-01-12T20:08:44.645Z,20.80
2023-01-12T20:11:11.439Z,20.90
2023-01-12T20:13:38.256Z,21.00
2023-01-12T20:16:08.913Z,21.00
2023-01-12T20:18:35.894Z,21.00
2023-01-12T20:21:10.423Z,21.00
2023-01-12T20:23:37.153Z,20.90
2023-01-12T20:26:08.447Z,20.90
2023-01-12T20:28:35.564Z,20.90
2023-01-12T20:31:07.611Z,21.00
2023-01-12T20:33:34.244Z,21.00
2023-01-12T20:36:01.328Z,21.00
2023-01-12T20:38:28.141Z,21.00
2023-01-12T20:40:54.942Z,21.00
2023-01-12T20:43:24.061Z,21.00
2023-01-12T20:45:54.492Z,21.00
2023-01-12T20:48:21.088Z,21.00
2023-01-12T20:50:48.531Z,20.90
2023-01-12T20:53:16.261Z,21.00
2023-01-12T20:55:45.765Z,21.10
2023-01-12T20:58:12.883Z,21.20
2023-01-12T21:00:40.210Z,21.20
2023-01-12T21:03:07.255Z,21.30
2023-01-12T21:05:34.785Z,21.40
2023-01-12T21:08:07.846Z,21.40
2023-01-12T21:10:36.652Z,21.40
2023-01-12T21:13:03.565Z,21.50
2023-01-12T21:15:30.475Z,21.50
2023-01-12T21:17:57.325Z,21.50
2023-01-12T21:20:23.992Z,21.60
2023-01-12T21:22:50.654Z,21.60
2023-01-12T21:25:17.383Z,21.60
2023-01-12T21:27:44.006Z,21.60
2023-01-12T21:30:12.336Z,21.60
2023-01-12T21:32:38.993Z,21.60
2023-01-12T21:35:06.071Z,21.60
2023-01-12T21:37:32.724Z,21.70
2023-01-12T21:39:59.436Z,21.70
2023-01-12T21:42:44.794Z,21.70
2023-01-12T21:45:11.523Z,21.70
2023-01-12T21:47:38.268Z,21.70
2023-01-12T21:50:05.568Z,21.50
2023-01-12T21:52:33.076Z,21.30
2023-01-12T21:54:59.983Z,21.20
2023-01-12T21:57:26.837Z,21.10
2023-01-12T21:59:53.498Z,21.10
2023-01-12T22:02:20.189Z,21.00
2023-01-12T22:04:46.838Z,21.00
2023-01-12T22:07:13.573Z,21.00
2023-01-12T22:09:40.243Z,21.00
2023-01-12T22:12:07.309Z,20.90
2023-01-12T22:14:33.996Z,20.90
2023-01-12T22:17:00.639Z,20.90
2023-01-12T22:19:27.294Z,20.90
2023-01-12T22:21:54.202Z,20.90
2023-01-12T22:24:20.987Z,20.90
2023-01-12T22:26:47.767Z,20.90
2023-01-12T22:29:14.521Z,20.90
2023-01-12T22:31:41.445Z,20.90
2023-01-12T22:34:09.165Z,20.80
2023-01-12T22:36:43.000Z,20.80
2023-01-12T22:39:13.255Z,20.80
2023-01-12T22:41:40.506Z,20.80
2023-01-12T22:44:07.283Z,20.80
2023-01-12T22:46:34.358Z,20.80
2023-01-12T22:49:01.182Z,20.80
2023-01-12T22:51:29.452Z,20.80
2023-01-12T22:53:57.575Z,20.80
2023-01-12T22:56:24.972Z,20.80
2023-01-12T22:58:53.454Z,20.80
2023-01-12T23:01:21.463Z,20.70
2023-01-12T23:03:51.780Z,20.70
2023-01-12T23:06:18.430Z,20.70
2023-01-12T23:08:45.266Z,20.70
2023-01-12T23:11:15.106Z,20.70
2023-01-12T23:13:43.040Z,20.70
2023-01-12T23:16:11.780Z,20.70
2023-01-12T23:18:40.363Z,20.70
2023-01-12T23:21:15.610Z,20.70
2023-01-12T23:23:48.182Z,20.70
2023-01-12T23:26:20.310Z,20.70
2023-01-12T23:28:55.874Z,20.70
2023-01-12T23:31:25.491Z,20.70
2023-01-12T23:33:52.821Z,20.70
2023-01-12T23:36:22.366Z,20.70
2023-01-12T23:38:54.190Z,20.70
2023-01-12T23:41:23.135Z,20.70
2023-01-12T23:43:51.648Z,20.70
2023-01-12T23:46:23.359Z,20.70
2023-01-12T23:48:55.424Z,20.70
2023-01-12T23:51:23.569Z,20.70
2023-01-12T23:53:54.577Z,20.70
2023-01-12T23:56:22.043Z,20.70
2023-01-12T23:58:48.675Z,20.70
